createdAt,value
2023-04-27T00:04:24.536Z,3.28
2023-04-27T00:09:26.270Z,3.40
2023-04-27T00:14:27.867Z,3.17
2023-04-27T00:19:29.610Z,3.05
2023-04-27T00:24:31.243Z,2.80
2023-04-27T00:29:33.097Z,3.20
2023-04-27T00:34:35.269Z,2.83
2023-04-27T00:39:36.905Z,3.70
2023-04-27T00:44:39.816Z,3.30
2023-04-27T00:49:41.747Z,4.10
2023-04-27T00:54:43.658Z,3.03
2023-04-27T00:59:45.345Z,3.88
2023-04-27T01:04:50.113Z,4.05
2023-04-27T01:09:51.801Z,3.50
2023-04-27T01:14:53.376Z,3.30
2023-04-27T01:19:55.015Z,4.15
2023-04-27T01:24:56.592Z,3.80
2023-04-27T01:29:58.425Z,4.07
2023-04-27T01:35:00.135Z,4.07
2023-04-27T01:40:01.969Z,3.72
2023-04-27T01:45:04.185Z,3.88
2023-04-27T01:50:07.275Z,3.85
2023-04-27T01:55:09.525Z,3.83
2023-04-27T02:00:12.874Z,3.95
2023-04-27T02:05:23.980Z,3.60
2023-04-27T02:10:27.653Z,4.95
2023-04-27T02:15:32.324Z,3.97
2023-04-27T02:20:34.980Z,3.58
2023-04-27T02:25:37.271Z,3.50
2023-04-27T02:30:39.450Z,3.78
2023-04-27T02:35:41.014Z,4.25
2023-04-27T02:40:42.732Z,4.53
2023-04-27T02:45:44.466Z,3.92
2023-04-27T02:50:46.336Z,3.70
2023-04-27T02:55:48.545Z,4.38
2023-04-27T03:00:57.345Z,5.00
2023-04-27T03:05:59.016Z,4.13
2023-04-27T03:11:00.737Z,4.47
2023-04-27T03:16:03.778Z,3.95
2023-04-27T03:21:09.838Z,4.70
2023-04-27T03:26:14.117Z,5.40
2023-04-27T03:31:16.299Z,4.85
2023-04-27T03:36:17.957Z,5.43
2023-04-27T03:41:19.674Z,4.85
2023-04-27T03:46:21.387Z,4.60
2023-04-27T03:51:23.493Z,4.65
2023-04-27T03:56:25.256Z,4.10
2023-04-27T04:01:27.053Z,4.63
2023-04-27T04:06:28.827Z,5.20
2023-04-27T04:11:31.304Z,4.90
2023-04-27T04:16:34.617Z,5.13
2023-04-27T04:21:36.363Z,4.65
2023-04-27T04:26:40.699Z,5.38
2023-04-27T04:31:42.657Z,4.90
2023-04-27T04:36:44.558Z,5.55
2023-04-27T04:41:46.705Z,5.72
2023-04-27T04:46:48.975Z,5.18
2023-04-27T04:51:50.715Z,5.07
2023-04-27T04:56:52.504Z,5.18
2023-04-27T05:01:54.257Z,5.63
2023-04-27T05:06:55.852Z,4.95
2023-04-27T05:11:57.495Z,4.68
2023-04-27T05:16:59.250Z,4.80
2023-04-27T05:22:00.960Z,4.57
2023-04-27T05:27:02.671Z,4.93
2023-04-27T05:32:04.653Z,4.88
2023-04-27T05:37:06.405Z,4.10
2023-04-27T05:42:07.891Z,4.18
2023-04-27T05:47:09.564Z,5.70
2023-04-27T05:52:11.149Z,4.63
2023-04-27T05:57:12.903Z,5.28
2023-04-27T06:02:14.527Z,5.38
2023-04-27T06:07:16.472Z,5.25
2023-04-27T06:12:18.100Z,5.20
2023-04-27T06:17:21.977Z,4.88
2023-04-27T06:22:23.557Z,4.90
2023-04-27T06:27:25.125Z,5.55
2023-04-27T06:32:26.812Z,5.32
2023-04-27T06:37:28.470Z,5.30
2023-04-27T06:42:30.016Z,5.07
2023-04-27T06:47:31.652Z,5.82
2023-04-27T06:52:33.302Z,5.40
2023-04-27T06:57:35.055Z,5.53
2023-04-27T07:02:36.958Z,5.68
2023-04-27T07:07:38.662Z,5.75
2023-04-27T07:12:42.827Z,5.40
2023-04-27T07:17:44.559Z,5.43
2023-04-27T07:22:46.152Z,6.05
2023-04-27T07:27:47.659Z,6.22
2023-04-27T07:32:49.427Z,6.38
2023-04-27T07:37:51.015Z,5.55
2023-04-27T07:42:52.526Z,6.13
2023-04-27T07:47:54.105Z,5.50
2023-04-27T07:52:56.336Z,5.85
2023-04-27T07:57:58.115Z,5.53
2023-04-27T08:03:00.009Z,6.60
2023-04-27T08:13:03.345Z,6.30
2023-04-27T08:18:05.026Z,6.00
2023-04-27T08:23:06.694Z,6.03
2023-04-27T08:28:08.236Z,5.82
2023-04-27T08:33:10.088Z,6.75
2023-04-27T08:38:11.713Z,6.55
2023-04-27T08:43:13.744Z,6.18
2023-04-27T08:48:15.417Z,6.40
2023-04-27T08:53:20.314Z,6.63
2023-04-27T08:58:21.868Z,6.78
2023-04-27T09:03:26.961Z,6.45
2023-04-27T09:08:28.860Z,5.57
2023-04-27T09:13:38.918Z,6.53
2023-04-27T09:18:43.456Z,6.00
2023-04-27T09:23:45.200Z,6.50
2023-04-27T09:28:49.304Z,7.18
2023-04-27T09:33:55.401Z,6.63
2023-04-27T09:38:57.731Z,6.40
2023-04-27T09:44:00.202Z,7.60
2023-04-27T09:49:05.030Z,6.63
2023-04-27T09:54:10.331Z,7.77
2023-04-27T09:59:30.818Z,6.60
2023-04-27T10:05:09.866Z,6.00
2023-04-27T10:10:18.680Z,6.15
2023-04-27T10:15:26.432Z,6.60
2023-04-27T10:20:33.694Z,6.43
2023-04-27T10:25:40.702Z,6.97
2023-04-27T10:30:46.104Z,6.15
2023-04-27T10:35:59.168Z,6.72
2023-04-27T10:41:02.645Z,6.72
2023-04-27T10:46:22.144Z,6.35
2023-04-27T10:51:25.073Z,6.07
2023-04-27T10:56:26.682Z,7.10
2023-04-27T11:01:28.372Z,6.63
2023-04-27T11:06:30.781Z,7.50
2023-04-27T11:11:32.380Z,6.45
2023-04-27T11:16:34.081Z,6.90
2023-04-27T11:21:35.923Z,7.03
2023-04-27T11:26:37.548Z,6.70
2023-04-27T11:31:46.306Z,6.97
2023-04-27T11:37:17.364Z,6.43
2023-04-27T11:42:28.090Z,6.28
2023-04-27T11:47:31.084Z,6.53
2023-04-27T11:52:34.605Z,5.60
2023-04-27T11:57:36.529Z,5.95
2023-04-27T12:02:38.717Z,6.22
2023-04-27T12:07:40.546Z,5.13
2023-04-27T12:12:42.546Z,5.97
2023-04-27T12:17:44.090Z,5.78
2023-04-27T12:22:45.712Z,4.82
2023-04-27T12:27:47.326Z,5.80
2023-04-27T12:32:48.978Z,4.93
2023-04-27T12:37:50.540Z,4.78
2023-04-27T12:42:52.222Z,5.95
2023-04-27T12:48:02.849Z,5.13
2023-04-27T12:53:05.633Z,4.47
2023-04-27T12:58:07.201Z,5.05
2023-04-27T13:03:08.987Z,5.70
2023-04-27T13:08:10.910Z,6.05
2023-04-27T13:13:12.811Z,5.30
2023-04-27T13:18:14.700Z,5.05
2023-04-27T13:23:16.768Z,4.57
2023-04-27T13:28:18.682Z,5.47
2023-04-27T13:33:23.031Z,5.07
2023-04-27T13:43:27.149Z,5.03
2023-04-27T13:48:29.575Z,4.60
2023-04-27T13:53:31.151Z,5.18
2023-04-27T13:58:32.793Z,6.32
2023-04-27T14:03:35.584Z,4.85
2023-04-27T14:08:37.415Z,5.82
2023-04-27T14:13:39.031Z,4.47
2023-04-27T14:18:40.683Z,4.85
2023-04-27T14:23:42.581Z,5.47
2023-04-27T14:28:44.140Z,5.85
2023-04-27T14:33:45.874Z,5.40
2023-04-27T14:38:47.427Z,6.18
2023-04-27T14:43:49.086Z,5.50
2023-04-27T14:48:50.715Z,5.97
2023-04-27T14:53:52.596Z,6.10
2023-04-27T14:58:54.290Z,5.07
2023-04-27T15:03:56.368Z,4.88
2023-04-27T15:08:58.542Z,6.00
2023-04-27T15:14:00.259Z,6.60
2023-04-27T15:19:01.878Z,4.75
2023-04-27T15:24:03.579Z,5.18
2023-04-27T15:29:05.298Z,6.05
2023-04-27T15:34:07.113Z,4.25
2023-04-27T15:39:10.283Z,4.15
2023-04-27T15:44:11.955Z,4.18
2023-04-27T15:49:13.888Z,5.15
2023-04-27T15:54:19.214Z,4.93
2023-04-27T15:59:20.760Z,4.40
2023-04-27T16:04:22.439Z,4.85
2023-04-27T16:09:24.099Z,4.60
2023-04-27T16:14:25.647Z,4.05
2023-04-27T16:19:27.237Z,3.85
2023-04-27T16:24:29.566Z,4.38
2023-04-27T16:29:31.078Z,3.90
2023-04-27T16:34:32.888Z,3.10
2023-04-27T16:39:34.420Z,3.22
2023-04-27T16:44:37.815Z,3.97
2023-04-27T16:49:39.488Z,3.25
2023-04-27T16:54:41.070Z,3.25
2023-04-27T16:59:42.587Z,3.08
2023-04-27T17:04:44.214Z,2.33
2023-04-27T17:09:45.733Z,2.30
2023-04-27T17:14:47.305Z,2.47
2023-04-27T17:19:48.836Z,2.00
2023-04-27T17:24:50.447Z,2.50
2023-04-27T17:29:53.695Z,2.60
2023-04-27T17:34:55.341Z,2.55
2023-04-27T17:39:57.182Z,3.15
2023-04-27T17:44:58.734Z,2.30
2023-04-27T17:50:00.227Z,3.40
2023-04-27T17:55:01.786Z,3.30
2023-04-27T18:00:03.718Z,2.28
2023-04-27T18:05:11.508Z,2.85
2023-04-27T18:10:13.264Z,2.67
2023-04-27T18:15:14.805Z,3.45
2023-04-27T18:20:17.745Z,4.82
2023-04-27T18:25:19.739Z,3.03
2023-04-27T18:30:21.617Z,3.65
2023-04-27T18:35:23.281Z,2.35
2023-04-27T18:40:24.880Z,2.80
2023-04-27T18:45:26.422Z,2.40
2023-04-27T18:50:28.138Z,2.20
2023-04-27T18:55:29.722Z,2.63
2023-04-27T19:00:31.312Z,2.83
2023-04-27T19:05:32.867Z,3.95
2023-04-27T19:10:34.575Z,2.88
2023-04-27T19:15:36.094Z,2.60
2023-04-27T19:20:38.300Z,2.70
2023-04-27T19:25:39.982Z,3.00
2023-04-27T19:30:41.682Z,2.22
2023-04-27T19:35:43.554Z,2.92
2023-04-27T19:40:47.061Z,3.67
2023-04-27T19:45:48.758Z,2.90
2023-04-27T19:50:50.614Z,2.45
2023-04-27T19:55:52.154Z,2.75
2023-04-27T20:00:53.845Z,2.65
2023-04-27T20:05:55.813Z,2.97
2023-04-27T20:10:57.720Z,3.45
2023-04-27T20:15:59.693Z,3.38
2023-04-27T20:21:01.376Z,2.92
2023-04-27T20:26:03.711Z,2.20
2023-04-27T20:31:05.374Z,2.83
2023-04-27T20:36:17.215Z,2.50
2023-04-27T20:41:19.925Z,3.20
2023-04-27T20:46:21.689Z,3.13
2023-04-27T20:51:23.285Z,3.67
2023-04-27T20:56:25.040Z,3.30
2023-04-27T21:01:26.656Z,4.18
2023-04-27T21:06:28.215Z,3.20
2023-04-27T21:11:29.899Z,3.60
2023-04-27T21:16:31.481Z,3.42
2023-04-27T21:21:33.008Z,3.60
2023-04-27T21:26:34.660Z,3.75
2023-04-27T21:31:36.279Z,2.95
2023-04-27T21:36:37.862Z,3.60
2023-04-27T21:41:39.434Z,3.00
2023-04-27T21:46:41.197Z,3.03
2023-04-27T21:51:42.722Z,3.15
2023-04-27T21:56:44.276Z,3.22
2023-04-27T22:01:46.088Z,3.85
2023-04-27T22:06:48.318Z,3.15
2023-04-27T22:11:50.118Z,3.85
2023-04-27T22:16:51.707Z,3.78
2023-04-27T22:21:53.863Z,3.25
2023-04-27T22:26:55.589Z,3.20
2023-04-27T22:31:57.725Z,4.72
2023-04-27T22:36:59.458Z,3.83
2023-04-27T22:42:01.190Z,4.13
2023-04-27T22:47:03.431Z,4.05
2023-04-27T22:52:05.466Z,3.58
2023-04-27T22:57:07.600Z,4.40
2023-04-27T23:02:09.379Z,4.22
2023-04-27T23:07:11.144Z,4.45
2023-04-27T23:12:12.912Z,4.30
2023-04-27T23:17:14.546Z,4.60
2023-04-27T23:22:16.236Z,4.85
2023-04-27T23:27:18.926Z,4.38
2023-04-27T23:32:21.034Z,4.72
2023-04-27T23:37:23.184Z,4.88
2023-04-27T23:42:25.415Z,4.72
2023-04-27T23:47:27.011Z,4.32
2023-04-27T23:52:28.608Z,4.57
2023-04-27T23:57:30.121Z,5.05
